Nearby METAR Reports

 

KISP - Islip, New York, USA
Distance from station: SW 4mi, 6km
Updated: Fri, 04/19/2024 1:56 am EDT
Overcast
Overcast
 Wind from NE
Wind: NE 9 mph, 15 km/h
Temperature: 45°F, 7°C
Wind Chill: 40°F, 4°C
Dew Point: 41°F, 5°C
Humidity: 87%
Barometer: 30.14 inHg, 1020.7 hPa
Clouds: Overcast
Visibility: 10 miles, 16 km
Cloud details: Overcast 4000 ft
2024/04/19 05:56 KISP 190556Z AUTO 04008KT 10SM OVC040 07/05 A3014 RMK AO2 SLP207 T00720050 10078 20072 58006
KHWV - Shirley, New York, USA
Distance from station: E 10mi, 16km
Updated: Fri, 04/19/2024 1:56 am EDT
Overcast
Overcast
 Wind from varies
Wind: varies 5 mph, 7 km/h
Temperature: 45°F, 7°C
Wind Chill: 42°F, 6°C
Dew Point: 41°F, 5°C
Humidity: 87%
Barometer: 30.15 inHg, 1021 hPa
Clouds: Overcast
Visibility: 10 miles, 16 km
Cloud details: Overcast 4100 ft
2024/04/19 05:56 KHWV 190556Z AUTO VRB04KT 10SM OVC041 07/05 A3015 RMK AO2 SLP211 T00720050 10078 20072 58003
 
KFRG - Farmingdale, New York, USA
Distance from station: WSW 20mi, 33km
Updated: Fri, 04/19/2024 1:53 am EDT
Overcast
Overcast
 Wind from NE
Wind: NE 7 mph, 11 km/h
Temperature: 46°F, 8°C
Wind Chill: 42°F, 6°C
Dew Point: 39°F, 4°C
Humidity: 76%
Barometer: 30.15 inHg, 1021 hPa
Clouds: Overcast
Visibility: 10 miles, 16 km
Cloud details: Overcast 3800 ft
2024/04/19 05:53 KFRG 190553Z AUTO 05006KT 10SM OVC038 08/04 A3015 RMK AO2 SLP208 T00780044 10078 20067 58011
KBDR - Bridgeport, Connecticut, USA
Distance from station: N 23mi, 37km
Updated: Fri, 04/19/2024 1:52 am EDT
Overcast
Overcast
 Wind from NE
Wind: NE 7 mph, 11 km/h
Temperature: 46°F, 8°C
Wind Chill: 42°F, 6°C
Dew Point: 39°F, 4°C
Humidity: 76%
Barometer: 30.17 inHg, 1021.7 hPa
Clouds: Overcast
Visibility: 10 miles, 16 km
Cloud details: Overcast 3800 ft
2024/04/19 05:52 KBDR 190552Z AUTO 04006KT 10SM OVC038 08/04 A3017 RMK AO2 SLP215 T00780044 10083 20078 58004
 
KFOK - Westhampton Beac, New York, USA
Distance from station: E 23mi, 37km
Updated: Fri, 04/19/2024 1:53 am EDT
Overcast
Overcast
 Wind from NNE
Wind: NNE 9 mph, 15 km/h
Temperature: 46°F, 8°C
Wind Chill: 41°F, 5°C
Dew Point: 43°F, 6°C
Humidity: 87%
Barometer: 30.16 inHg, 1021.3 hPa
Clouds: Overcast
Visibility: 10 miles, 16 km
Cloud details: Overcast 4400 ft
2024/04/19 05:53 KFOK 190553Z AUTO 03008KT 10SM OVC044 08/06 A3016 RMK AO1 SLP214 T00780056 10078 20072 58006
KHVN - New Haven/Tweed, Connecticut, USA
Distance from station: NNE 31mi, 50km
Updated: Fri, 04/19/2024 1:53 am EDT
Overcast
Overcast
 Wind from NNE
Wind: NNE 6 mph, 9 km/h
Temperature: 46°F, 8°C
Wind Chill: 43°F, 6°C
Dew Point: 41°F, 5°C
Humidity: 82%
Barometer: 30.17 inHg, 1021.7 hPa
Clouds: Overcast
Visibility: 10 miles, 16 km
Cloud details: Overcast 4000 ft
2024/04/19 05:53 KHVN 190553Z AUTO 03005KT 10SM OVC040 08/05 A3017 RMK AO2 SLP215 T00830050 10089 20078 58003
 
KHPN - White Plains, New York, USA
Distance from station: WNW 37mi, 60km
Updated: Fri, 04/19/2024 1:56 am EDT
Mostly cloudy
Mostly cloudy
 Wind from NNE
Wind: NNE 3 mph, 6 km/h
Temperature: 43°F, 6°C
Dew Point: 37°F, 3°C
Humidity: 81%
Barometer: 30.15 inHg, 1021 hPa
Clouds: Mostly cloudy
Visibility: 10 miles, 16 km
Cloud details: Mostly cloudy 3000 ft
2024/04/19 05:56 KHPN 190556Z 03003KT 10SM BKN030 06/03 A3015 RMK AO2 SLP213 T00610028 10072 20050 56010
KJFK - Nyc/Jfk Arpt, New York, USA
Distance from station: WSW 40mi, 64km
Updated: Fri, 04/19/2024 1:51 am EDT
Partly cloudy
Partly cloudy
 Wind from NNE
Wind: NNE 8 mph, 13 km/h
Temperature: 45°F, 7°C
Wind Chill: 41°F, 5°C
Dew Point: 39°F, 4°C
Humidity: 81%
Barometer: 30.17 inHg, 1021.7 hPa
Clouds: Partly cloudy
Visibility: 10 miles, 16 km
Cloud details: Few Clouds 4400 ft
Partly cloudy 7000 ft
Partly cloudy 25000 ft
2024/04/19 05:51 KJFK 190551Z 02007KT 10SM FEW044 SCT070 SCT250 07/04 A3017 RMK AO2 SLP215 T00720039 10083 20067 55008
 
KDXR - Danbury, Connecticut, USA
Distance from station: NNW 42mi, 68km
Updated: Fri, 04/19/2024 2:07 am EDT
Overcast
Overcast
 Wind from ENE
Wind: ENE 5 mph, 7 km/h
Temperature: 45°F, 7°C
Wind Chill: 42°F, 6°C
Dew Point: 37°F, 3°C
Humidity: 76%
Barometer: 30.16 inHg, 1021.3 hPa
Clouds: Overcast
Visibility: 10 miles, 16 km
Cloud details: Overcast 2900 ft
2024/04/19 06:07 KDXR 190607Z AUTO 06004KT 10SM OVC029 07/03 A3016 RMK AO2 T00720033 $
KHTO - East Hampton, New York, USA
Distance from station: E 43mi, 69km
Updated: Sat, 05/21/2022 1:35 pm EDT
NOT Current
Clear
Clear
 Wind from WNW
Wind: WNW 5 mph, 7 km/h
Temperature: 81°F, 27°C
Heat Index: 83°F, 28°C
Dew Point: 66°F, 19°C
Humidity: 62%
Barometer: 30.00 inHg, 1015.9 hPa
Clouds: Clear
Visibility: 10 miles, 16 km
2022/05/21 17:35 KHTO 211735Z AUTO 30004KT 10SM CLR 27/19 A3000 RMK AO2 T02670193
 
KOXC - Oxford/Waterbury, Connecticut, USA
Distance from station: N 43mi, 70km
Updated: Fri, 04/19/2024 2:01 am EDT
Mostly cloudy
Mostly cloudy
 Wind from E
Wind: E 8 mph, 13 km/h
Temperature: 43°F, 6°C
Wind Chill: 38°F, 3°C
Dew Point: 37°F, 3°C
Humidity: 81%
Barometer: 30.15 inHg, 1021 hPa
Clouds: Mostly cloudy
Visibility: 10 miles, 16 km
Cloud details: Mostly cloudy 3000 ft
2024/04/19 06:01 KOXC 190601Z AUTO 09007KT 10SM BKN030 06/03 A3015 RMK AO2
KLGA - Nyc/La Guardia, New York, USA
Distance from station: W 44mi, 70km
Updated: Fri, 04/19/2024 1:51 am EDT
Overcast
Overcast
 Wind from NE
Wind: NE 9 mph, 15 km/h
Temperature: 46°F, 8°C
Wind Chill: 41°F, 5°C
Dew Point: 37°F, 3°C
Humidity: 71%
Barometer: 30.16 inHg, 1021.3 hPa
Clouds: Overcast
Visibility: 10 miles, 16 km
Cloud details: Overcast 3500 ft
2024/04/19 05:51 KLGA 190551Z 04008KT 10SM OVC035 08/03 A3016 RMK AO2 SLP214 T00780033 10089 20078 55008 $
 
KSNC - Chester, Connecticut, USA
Distance from station: NE 47mi, 76km
Updated: Fri, 04/19/2024 2:15 am EDT
Overcast
Overcast
 Wind from NNE
Wind: NNE 3 mph, 6 km/h
Temperature: 43°F, 6°C
Dew Point: 41°F, 5°C
Humidity: 93%
Barometer: 30.15 inHg, 1021 hPa
Clouds: Overcast
Visibility: 10 miles, 16 km
Cloud details: Overcast 3900 ft
2024/04/19 06:15 KSNC 190615Z AUTO 02003KT 10SM OVC039 06/05 A3015 RMK AO2
KMMK - Meriden, Connecticut, USA
Distance from station: NNE 48mi, 77km
Updated: Fri, 04/19/2024 1:53 am EDT
Overcast
Overcast
 Wind from calm
Wind: Calm
Temperature: 45°F, 7°C
Dew Point: 37°F, 3°C
Humidity: 76%
Barometer: 30.17 inHg, 1021.7 hPa
Clouds: Overcast
Visibility: 10 miles, 16 km
Cloud details: Overcast 3900 ft
2024/04/19 05:53 KMMK 190553Z AUTO 00000KT 10SM OVC039 07/03 A3017 RMK AO2 SLP218 T00720028 10078 20072 58004
 
KNYC - Nyc/Central Park, New York, USA
Distance from station: W 48mi, 77km
Updated: Fri, 04/19/2024 1:51 am EDT
Mostly cloudy
Mostly cloudy
 Wind from varies
Wind: varies 6 mph, 9 km/h
Temperature: 46°F, 8°C
Wind Chill: 43°F, 6°C
Dew Point: 37°F, 3°C
Humidity: 71%
Barometer: 30.19 inHg, 1022.4 hPa
Clouds: Mostly cloudy
Visibility: 10 miles, 16 km
Cloud details: Mostly cloudy 3500 ft
2024/04/19 05:51 KNYC 190551Z AUTO VRB05KT 10SM BKN035 08/03 A3019 RMK AO2 SLP214 T00780033 10083 20072 55009 $